createdAt,value
2022-10-12T09:36:19.703Z,11.10
2022-10-12T09:41:29.711Z,11.00
2022-10-12T09:46:40.067Z,11.10
2022-10-12T09:51:42.478Z,11.20
2022-10-12T09:56:54.674Z,11.40
2022-10-12T10:02:11.546Z,11.70
2022-10-12T10:07:31.377Z,11.90
2022-10-12T10:12:34.857Z,12.20
2022-10-12T10:17:36.648Z,12.50
2022-10-12T10:22:47.914Z,13.10
2022-10-12T10:27:51.456Z,13.00
2022-10-12T10:33:17.670Z,13.10
2022-10-12T10:38:19.475Z,13.20
2022-10-12T10:43:31.791Z,13.20
2022-10-12T10:49:06.573Z,13.50
2022-10-12T10:54:23.976Z,13.90
2022-10-12T10:59:53.265Z,13.80
2022-10-12T11:05:20.320Z,14.00
2022-10-12T11:10:27.868Z,14.00
2022-10-12T11:15:50.199Z,14.50
2022-10-12T11:21:20.214Z,14.80
2022-10-12T11:26:37.979Z,15.00
2022-10-12T11:31:45.656Z,15.50
2022-10-12T11:37:14.816Z,15.70
2022-10-12T11:42:21.731Z,15.50
2022-10-12T11:47:36.125Z,15.50
2022-10-12T11:52:43.810Z,15.20
2022-10-12T11:57:47.324Z,15.20
2022-10-12T12:03:18.352Z,15.10
2022-10-12T12:08:44.187Z,15.20
2022-10-12T12:13:45.898Z,15.10
2022-10-12T12:19:25.137Z,14.90
2022-10-12T12:24:27.063Z,15.30
2022-10-12T12:29:31.928Z,15.70
2022-10-12T12:34:34.456Z,15.80
2022-10-12T12:39:36.818Z,15.60
2022-10-12T12:44:41.589Z,15.50
2022-10-12T12:49:50.264Z,15.60
2022-10-12T12:55:25.910Z,15.70
2022-10-12T13:00:39.152Z,15.80
2022-10-12T13:05:53.040Z,15.70
2022-10-12T13:11:01.072Z,15.70
2022-10-12T13:16:41.545Z,15.70
2022-10-12T13:21:47.143Z,15.80
2022-10-12T13:26:54.928Z,16.30
2022-10-12T13:32:02.668Z,16.90
2022-10-12T13:37:13.131Z,17.50
2022-10-12T13:42:30.800Z,17.90
2022-10-12T13:47:33.746Z,17.30
2022-10-12T13:52:36.234Z,17.20
2022-10-12T13:57:40.883Z,17.60
2022-10-12T14:02:53.341Z,17.70
2022-10-12T14:08:05.888Z,18.50
2022-10-12T14:13:13.105Z,18.60
2022-10-12T14:18:51.035Z,18.50
2022-10-12T14:23:54.179Z,19.50
2022-10-12T14:28:57.906Z,19.00
2022-10-12T14:34:26.330Z,18.80
2022-10-12T14:39:28.193Z,19.10
2022-10-12T14:44:41.524Z,18.70
2022-10-12T14:49:48.814Z,18.20
2022-10-12T14:59:57.921Z,17.10
2022-10-12T15:04:59.983Z,17.10
2022-10-12T15:10:02.178Z,16.80
2022-10-12T15:15:45.814Z,16.70
2022-10-12T15:20:49.832Z,16.90
2022-10-12T15:25:52.918Z,16.70
2022-10-12T15:36:16.404Z,16.70
2022-10-12T15:41:20.689Z,16.90
2022-10-12T15:46:22.463Z,17.80
2022-10-12T15:51:24.897Z,18.20
2022-10-12T15:56:26.665Z,18.80
2022-10-12T16:01:28.596Z,17.50
2022-10-12T16:06:31.839Z,17.00
2022-10-12T16:11:33.704Z,16.70
2022-10-12T16:16:35.563Z,16.50
2022-10-12T16:21:37.290Z,16.40
2022-10-12T16:26:44.105Z,16.20
2022-10-12T16:31:48.164Z,16.00
2022-10-12T16:36:49.865Z,15.90
2022-10-12T16:41:51.976Z,15.80
2022-10-12T16:46:53.705Z,15.40
2022-10-12T16:51:55.432Z,15.50
2022-10-12T16:56:57.524Z,15.40
2022-10-12T17:01:59.753Z,15.10
2022-10-12T17:07:01.581Z,14.80
2022-10-12T17:12:04.137Z,14.50
2022-10-12T17:17:05.967Z,14.20
2022-10-12T17:22:10.597Z,14.00
2022-10-12T17:27:14.609Z,13.70
2022-10-12T17:32:17.272Z,13.70
2022-10-12T17:37:20.121Z,13.50
2022-10-12T17:42:23.103Z,13.50
2022-10-12T17:47:24.906Z,13.50
2022-10-12T17:52:26.929Z,13.20
2022-10-12T17:57:28.657Z,13.30
2022-10-12T18:02:30.384Z,13.40
2022-10-12T18:07:32.139Z,13.30
2022-10-12T18:12:34.634Z,13.30
2022-10-12T18:17:37.096Z,13.10
2022-10-12T18:22:38.886Z,13.00
2022-10-12T18:27:40.897Z,12.90
2022-10-12T18:32:42.669Z,12.90
2022-10-12T18:37:45.251Z,12.80
2022-10-12T18:42:47.123Z,12.70
2022-10-12T18:47:49.415Z,12.70
2022-10-12T18:52:51.284Z,12.60
2022-10-12T18:57:53.250Z,12.70
2022-10-12T19:02:55.072Z,12.70
2022-10-12T19:07:56.999Z,12.50
2022-10-12T19:12:59.963Z,12.30
2022-10-12T19:18:02.044Z,12.40
2022-10-12T19:23:03.910Z,12.40
2022-10-12T19:28:05.846Z,12.30
2022-10-12T19:33:07.652Z,12.40
2022-10-12T19:38:09.874Z,12.40
2022-10-12T19:43:12.818Z,12.30
2022-10-12T19:48:14.710Z,12.20
2022-10-12T19:53:16.471Z,12.40
2022-10-12T19:58:18.402Z,12.70
2022-10-12T20:03:20.255Z,12.70
2022-10-12T20:08:22.539Z,12.70
2022-10-12T20:13:24.311Z,12.80
2022-10-12T20:18:27.341Z,12.70
2022-10-12T20:23:29.083Z,12.80
2022-10-12T20:28:30.849Z,12.80
2022-10-12T20:33:34.363Z,12.80
2022-10-12T20:38:39.863Z,12.80
2022-10-12T20:43:42.729Z,12.80
2022-10-12T20:48:45.898Z,12.80
2022-10-12T20:53:47.844Z,12.80
2022-10-12T20:58:49.573Z,12.80
2022-10-12T21:03:52.869Z,12.80
2022-10-12T21:08:57.320Z,12.80
2022-10-12T21:13:59.304Z,12.70
2022-10-12T21:19:01.087Z,12.70
2022-10-12T21:24:03.961Z,12.70
2022-10-12T21:29:06.142Z,12.80
2022-10-12T21:34:09.248Z,12.80
2022-10-12T21:39:16.231Z,12.70
2022-10-12T21:44:18.089Z,12.80
2022-10-12T21:49:19.882Z,12.90
2022-10-12T21:54:21.613Z,12.90
2022-10-12T21:59:23.324Z,12.90
2022-10-12T22:04:25.182Z,12.90
2022-10-12T22:09:26.917Z,12.80
2022-10-12T22:14:28.711Z,12.70
2022-10-12T22:19:31.058Z,12.70
2022-10-12T22:24:32.836Z,12.70
2022-10-12T22:29:35.209Z,12.70
2022-10-12T22:34:36.991Z,12.70
2022-10-12T22:39:38.767Z,12.70
2022-10-12T22:44:40.487Z,12.70
2022-10-12T22:49:42.202Z,12.70
2022-10-12T22:54:44.061Z,12.80
2022-10-12T22:59:45.811Z,12.80
2022-10-12T23:04:47.883Z,12.70
2022-10-12T23:09:49.846Z,12.80
2022-10-12T23:14:51.758Z,12.70
2022-10-12T23:19:53.644Z,12.70
2022-10-12T23:24:55.352Z,12.80
2022-10-12T23:29:57.142Z,12.70
2022-10-12T23:34:58.948Z,12.70
2022-10-12T23:40:00.688Z,12.70
2022-10-12T23:45:03.908Z,12.70
2022-10-12T23:50:05.883Z,12.70
2022-10-12T23:55:08.228Z,12.60
